createdAt,value
2022-10-13T00:04:59.132Z,17.10
2022-10-13T00:07:27.850Z,17.67
2022-10-13T00:09:57.809Z,17.17
2022-10-13T00:12:26.680Z,16.40
2022-10-13T00:14:55.488Z,16.13
2022-10-13T00:17:24.313Z,17.60
2022-10-13T00:19:52.940Z,15.83
2022-10-13T00:22:21.701Z,17.37
2022-10-13T00:24:52.354Z,15.67
2022-10-13T00:27:22.275Z,14.57
2022-10-13T00:29:50.983Z,14.63
2022-10-13T00:32:20.157Z,14.37
2022-10-13T00:34:49.052Z,15.50
2022-10-13T00:37:17.657Z,14.90
2022-10-13T00:39:46.285Z,15.67
2022-10-13T00:42:15.305Z,14.73
2022-10-13T00:45:07.265Z,15.57
2022-10-13T00:47:42.018Z,13.93
2022-10-13T00:50:13.462Z,15.90
2022-10-13T00:52:43.590Z,17.00
2022-10-13T00:55:14.920Z,15.40
2022-10-13T00:57:47.514Z,15.13
2022-10-13T01:00:17.938Z,15.00
2022-10-13T01:02:46.582Z,16.43
2022-10-13T01:05:15.210Z,15.67
2022-10-13T01:07:44.812Z,15.37
2022-10-13T01:10:13.575Z,14.87
2022-10-13T01:12:48.140Z,17.77
2022-10-13T01:15:23.817Z,15.07
2022-10-13T01:18:03.629Z,16.27
2022-10-13T01:21:07.409Z,15.20
2022-10-13T01:24:15.783Z,14.80
2022-10-13T01:27:05.543Z,15.07
2022-10-13T01:30:07.144Z,16.37
2022-10-13T01:32:58.548Z,16.57
2022-10-13T01:35:36.689Z,15.77
2022-10-13T01:38:09.561Z,17.07
2022-10-13T01:40:42.583Z,13.80
2022-10-13T01:43:18.108Z,15.30
2022-10-13T01:45:55.296Z,15.70
2022-10-13T01:48:25.324Z,16.77
2022-10-13T01:50:55.321Z,15.23
2022-10-13T01:53:25.063Z,17.90
2022-10-13T01:55:55.630Z,15.93
2022-10-13T01:58:26.483Z,15.87
2022-10-13T02:01:18.495Z,14.93
2022-10-13T02:03:57.037Z,15.47
2022-10-13T02:06:31.101Z,16.40
2022-10-13T02:09:03.990Z,15.03
2022-10-13T02:11:32.885Z,15.93
2022-10-13T02:14:06.446Z,16.20
2022-10-13T02:16:41.129Z,15.70
2022-10-13T02:19:12.515Z,16.13
2022-10-13T02:21:42.121Z,15.43
2022-10-13T02:24:11.333Z,15.03
2022-10-13T02:26:40.262Z,16.90
2022-10-13T02:29:10.427Z,16.27
2022-10-13T02:31:41.076Z,15.23
2022-10-13T02:34:09.872Z,15.10
2022-10-13T02:36:39.129Z,13.87
2022-10-13T02:39:09.943Z,15.17
2022-10-13T02:41:38.619Z,15.27
2022-10-13T02:44:07.621Z,15.77
2022-10-13T02:46:36.484Z,15.60
2022-10-13T02:49:06.519Z,16.93
2022-10-13T02:51:39.675Z,16.73
2022-10-13T02:54:09.701Z,15.73
2022-10-13T02:56:38.346Z,15.40
2022-10-13T02:59:06.829Z,15.13
2022-10-13T03:01:35.900Z,14.60
2022-10-13T03:04:04.404Z,16.77
2022-10-13T03:06:34.459Z,15.53
2022-10-13T03:09:03.085Z,14.67
2022-10-13T03:11:31.685Z,16.03
2022-10-13T03:14:00.506Z,16.30
2022-10-13T03:16:29.066Z,14.63
2022-10-13T03:18:57.647Z,16.30
2022-10-13T03:21:26.371Z,18.47
2022-10-13T03:23:56.379Z,17.00
2022-10-13T03:26:25.026Z,17.80
2022-10-13T03:28:54.119Z,17.10
2022-10-13T03:31:22.638Z,16.97
2022-10-13T03:33:51.601Z,17.40
2022-10-13T03:36:20.219Z,17.27
2022-10-13T03:38:48.909Z,17.03
2022-10-13T03:41:20.133Z,16.87
2022-10-13T03:43:49.045Z,18.13
2022-10-13T03:46:19.255Z,16.13
2022-10-13T03:48:48.507Z,15.77
2022-10-13T03:51:19.041Z,15.70
2022-10-13T03:53:48.183Z,18.97
2022-10-13T03:56:20.226Z,15.57
2022-10-13T03:58:53.684Z,16.60
2022-10-13T04:01:23.478Z,18.43
2022-10-13T04:03:53.932Z,19.63
2022-10-13T04:06:23.190Z,17.43
2022-10-13T04:08:52.040Z,17.47
2022-10-13T04:11:22.919Z,16.90
2022-10-13T04:13:51.863Z,16.87
2022-10-13T04:16:23.971Z,15.53
2022-10-13T04:18:54.962Z,17.87
2022-10-13T04:21:24.201Z,17.63
2022-10-13T04:23:52.837Z,19.90
2022-10-13T04:26:24.544Z,18.33
2022-10-13T04:28:54.966Z,18.50
2022-10-13T04:31:25.086Z,18.80
2022-10-13T04:33:54.826Z,16.80
2022-10-13T04:36:24.019Z,17.70
2022-10-13T04:38:53.042Z,19.07
2022-10-13T04:41:23.665Z,18.00
2022-10-13T04:43:53.421Z,16.93
2022-10-13T04:46:23.876Z,16.27
2022-10-13T04:48:53.076Z,17.77
2022-10-13T04:51:23.811Z,18.43
2022-10-13T04:53:56.382Z,19.17
2022-10-13T04:56:26.864Z,18.20
2022-10-13T04:58:55.573Z,18.00
2022-10-13T05:01:25.918Z,18.10
2022-10-13T05:03:54.885Z,18.90
2022-10-13T05:06:25.803Z,17.33
2022-10-13T05:08:54.755Z,17.67
2022-10-13T05:11:24.289Z,16.70
2022-10-13T05:13:54.660Z,18.47
2022-10-13T05:16:24.673Z,16.53
2022-10-13T05:18:56.039Z,18.13
2022-10-13T05:21:26.683Z,17.13
2022-10-13T05:23:56.284Z,19.33
2022-10-13T05:26:29.048Z,16.10
2022-10-13T05:28:59.541Z,19.63
2022-10-13T05:31:29.877Z,18.07
2022-10-13T05:33:59.266Z,17.57
2022-10-13T05:36:46.398Z,17.20
2022-10-13T05:39:14.977Z,18.00
2022-10-13T05:41:43.624Z,16.90
2022-10-13T05:44:14.945Z,17.07
2022-10-13T05:46:43.583Z,16.67
2022-10-13T05:49:12.911Z,18.13
2022-10-13T05:51:45.592Z,17.97
2022-10-13T05:54:18.361Z,17.73
2022-10-13T05:56:52.378Z,18.10
2022-10-13T05:59:27.079Z,16.60
2022-10-13T06:01:56.348Z,18.17
2022-10-13T06:04:30.010Z,17.20
2022-10-13T06:06:58.794Z,19.00
2022-10-13T06:09:30.753Z,17.87
2022-10-13T06:11:59.464Z,18.57
2022-10-13T06:14:29.480Z,17.27
2022-10-13T06:16:58.072Z,17.70
2022-10-13T06:19:26.778Z,17.63
2022-10-13T06:21:56.043Z,17.00
2022-10-13T06:24:25.872Z,18.87
2022-10-13T06:26:54.543Z,17.40
2022-10-13T06:29:23.363Z,17.03
2022-10-13T06:31:53.397Z,19.70
2022-10-13T06:34:21.983Z,19.43
2022-10-13T06:36:50.623Z,18.87
2022-10-13T06:39:19.436Z,18.60
2022-10-13T06:41:48.330Z,17.93
2022-10-13T06:44:17.090Z,18.43
2022-10-13T06:46:47.857Z,18.43
2022-10-13T06:49:18.001Z,17.40
2022-10-13T06:51:46.904Z,16.90
2022-10-13T06:54:15.529Z,17.37
2022-10-13T06:56:44.342Z,18.37
2022-10-13T06:59:13.105Z,17.73
2022-10-13T07:01:42.009Z,18.63
2022-10-13T07:04:11.033Z,17.67
2022-10-13T07:06:41.092Z,17.60
2022-10-13T07:09:10.934Z,19.07
2022-10-13T07:11:40.067Z,18.17
2022-10-13T07:14:09.921Z,17.83
2022-10-13T07:16:38.508Z,17.90
2022-10-13T07:19:07.092Z,18.50
2022-10-13T07:21:35.670Z,17.43
2022-10-13T07:24:06.063Z,20.77
2022-10-13T07:26:34.825Z,18.53
2022-10-13T07:29:03.582Z,19.70
2022-10-13T07:31:32.182Z,17.77
2022-10-13T07:34:01.724Z,19.27
2022-10-13T07:36:30.311Z,18.57
2022-10-13T07:38:59.119Z,19.40
2022-10-13T07:41:29.224Z,19.40
2022-10-13T07:43:58.309Z,20.53
2022-10-13T07:46:26.978Z,17.57
2022-10-13T07:48:55.886Z,18.63
2022-10-13T07:51:24.850Z,16.97
2022-10-13T07:53:53.465Z,18.90
2022-10-13T07:56:22.088Z,16.97
2022-10-13T07:58:52.062Z,19.83
2022-10-13T08:01:20.622Z,16.93
2022-10-13T08:03:50.589Z,18.30
2022-10-13T08:06:19.549Z,17.77
2022-10-13T08:08:48.106Z,18.40
2022-10-13T08:11:18.315Z,17.20
2022-10-13T08:13:52.392Z,21.10
2022-10-13T08:16:21.324Z,19.33
2022-10-13T08:18:50.479Z,18.77
2022-10-13T08:24:14.022Z,18.17
2022-10-13T08:26:44.102Z,18.27
2022-10-13T08:29:21.899Z,17.97
2022-10-13T08:31:52.594Z,19.23
2022-10-13T08:34:21.720Z,18.97
2022-10-13T08:36:53.523Z,18.87
2022-10-13T08:39:22.842Z,18.20
2022-10-13T08:41:52.288Z,19.20
2022-10-13T08:47:31.214Z,18.73
2022-10-13T08:50:03.345Z,20.00
2022-10-13T08:52:48.087Z,19.23
2022-10-13T08:55:25.270Z,17.93
2022-10-13T08:57:53.967Z,18.57
2022-10-13T09:00:23.898Z,19.50
2022-10-13T09:02:52.626Z,19.50
2022-10-13T09:05:32.009Z,18.83
2022-10-13T09:08:01.287Z,21.33
2022-10-13T09:10:29.997Z,19.07
2022-10-13T09:13:01.175Z,21.57
2022-10-13T09:15:31.138Z,21.37
2022-10-13T09:18:11.225Z,20.80
2022-10-13T09:20:40.105Z,19.77
2022-10-13T09:23:18.557Z,20.80
2022-10-13T09:25:49.482Z,20.57
2022-10-13T09:28:21.657Z,20.93
2022-10-13T09:31:03.245Z,21.17
2022-10-13T09:33:36.815Z,22.73
2022-10-13T09:36:14.385Z,19.40
2022-10-13T09:38:46.280Z,20.93
2022-10-13T09:41:18.870Z,21.03
2022-10-13T09:44:01.767Z,20.87
2022-10-13T09:46:34.577Z,20.13
2022-10-13T09:49:05.898Z,22.43
2022-10-13T09:51:38.875Z,21.13
2022-10-13T09:54:24.750Z,20.17
2022-10-13T09:56:58.364Z,21.30
2022-10-13T09:59:33.933Z,22.07
2022-10-13T10:02:19.363Z,22.23
2022-10-13T10:04:53.306Z,22.87
2022-10-13T10:07:31.386Z,20.10
2022-10-13T10:10:02.833Z,22.27
2022-10-13T10:12:34.864Z,21.70
2022-10-13T10:15:04.089Z,22.97
2022-10-13T10:17:40.186Z,21.67
2022-10-13T10:20:37.165Z,21.00
2022-10-13T10:23:09.172Z,20.33
2022-10-13T10:25:42.402Z,20.27
2022-10-13T10:28:33.106Z,19.90
2022-10-13T10:31:07.602Z,21.20
2022-10-13T10:33:50.374Z,20.23
2022-10-13T10:36:23.517Z,20.60
2022-10-13T10:39:00.339Z,19.57
2022-10-13T10:41:46.013Z,19.67
2022-10-13T10:44:17.208Z,20.57
2022-10-13T10:46:49.610Z,19.80
2022-10-13T10:49:24.382Z,21.20
2022-10-13T10:51:53.354Z,22.07
2022-10-13T10:54:32.584Z,20.60
2022-10-13T10:57:08.180Z,20.03
2022-10-13T10:59:50.891Z,19.57
2022-10-13T11:02:42.625Z,19.23
2022-10-13T11:05:13.295Z,21.23
2022-10-13T11:07:59.509Z,20.17
2022-10-13T11:10:29.479Z,20.90
2022-10-13T11:13:22.415Z,20.47
2022-10-13T11:15:51.341Z,20.40
2022-10-13T11:18:58.940Z,20.03
2022-10-13T11:22:14.370Z,20.37
2022-10-13T11:24:48.825Z,20.40
2022-10-13T11:27:26.198Z,19.57
2022-10-13T11:30:00.298Z,19.73
2022-10-13T11:32:55.604Z,20.43
2022-10-13T11:35:28.031Z,19.80
2022-10-13T11:38:15.429Z,20.93
2022-10-13T11:41:08.416Z,19.43
2022-10-13T11:43:47.017Z,18.97
2022-10-13T11:46:30.150Z,19.93
2022-10-13T11:49:37.235Z,22.20
2022-10-13T11:52:32.140Z,20.13
2022-10-13T11:55:10.943Z,21.93
2022-10-13T11:57:39.739Z,20.80
2022-10-13T12:00:15.488Z,21.60
2022-10-13T12:02:51.588Z,21.83
2022-10-13T12:05:25.472Z,20.93
2022-10-13T12:07:56.710Z,24.17
2022-10-13T12:10:31.923Z,20.53
2022-10-13T12:13:01.392Z,23.13
2022-10-13T12:15:34.142Z,21.77
2022-10-13T12:18:03.501Z,21.67
2022-10-13T12:20:34.638Z,20.70
2022-10-13T12:23:03.353Z,21.43
2022-10-13T12:25:33.846Z,20.17
2022-10-13T12:28:03.440Z,21.63
2022-10-13T12:30:36.268Z,21.17
2022-10-13T12:33:18.865Z,20.67
2022-10-13T12:35:47.571Z,22.07
2022-10-13T12:38:20.376Z,21.40
2022-10-13T12:40:53.304Z,19.57
2022-10-13T12:43:26.383Z,20.47
2022-10-13T12:45:54.978Z,22.03
2022-10-13T12:48:34.521Z,18.90
2022-10-13T12:51:16.036Z,20.07
2022-10-13T12:53:45.863Z,19.23
2022-10-13T12:56:28.818Z,20.93
2022-10-13T12:58:58.716Z,19.83
2022-10-13T13:01:31.788Z,19.23
2022-10-13T13:04:40.928Z,19.80
2022-10-13T13:07:29.459Z,20.87
2022-10-13T13:10:14.823Z,20.03
2022-10-13T13:12:45.862Z,20.13
2022-10-13T13:15:35.941Z,19.87
2022-10-13T13:18:24.898Z,19.90
2022-10-13T13:20:54.235Z,20.90
2022-10-13T13:23:23.755Z,20.80
2022-10-13T13:26:03.070Z,20.33
2022-10-13T13:28:34.063Z,20.90
2022-10-13T13:31:02.864Z,20.03
2022-10-13T13:33:31.531Z,20.77
2022-10-13T13:36:00.337Z,21.33
2022-10-13T13:38:29.022Z,21.13
2022-10-13T13:41:00.136Z,20.07
2022-10-13T13:43:38.855Z,20.60
2022-10-13T13:46:08.556Z,21.37
2022-10-13T13:48:37.110Z,21.27
2022-10-13T13:51:05.947Z,22.07
2022-10-13T13:53:34.612Z,20.87
2022-10-13T13:56:03.409Z,21.60
2022-10-13T13:58:32.340Z,20.57
2022-10-13T14:01:02.547Z,21.97
2022-10-13T14:03:31.364Z,21.27
2022-10-13T14:05:59.969Z,20.60
2022-10-13T14:08:31.592Z,20.13
2022-10-13T14:11:00.414Z,20.57
2022-10-13T14:13:29.043Z,20.23
2022-10-13T14:15:58.718Z,20.53
2022-10-13T14:18:29.230Z,22.37
2022-10-13T14:20:58.041Z,19.70
2022-10-13T14:23:26.819Z,20.67
2022-10-13T14:25:55.596Z,19.43
2022-10-13T14:28:24.325Z,20.33
2022-10-13T14:30:52.971Z,20.73
2022-10-13T14:33:21.619Z,21.77
2022-10-13T14:35:51.763Z,20.57
2022-10-13T14:38:20.799Z,20.07
2022-10-13T14:40:49.338Z,21.03
2022-10-13T14:43:17.961Z,20.40
2022-10-13T14:45:46.544Z,20.97
2022-10-13T14:48:15.246Z,21.13
2022-10-13T14:50:43.825Z,20.97
2022-10-13T14:53:15.391Z,22.20
2022-10-13T14:55:44.242Z,20.90
2022-10-13T14:58:13.613Z,20.97
2022-10-13T15:00:44.264Z,20.63
2022-10-13T15:03:13.006Z,19.70
2022-10-13T15:05:41.918Z,21.07
2022-10-13T15:08:10.906Z,22.90
2022-10-13T15:10:41.026Z,21.90
2022-10-13T15:13:10.012Z,21.63
2022-10-13T15:15:38.826Z,21.27
2022-10-13T15:18:07.394Z,24.00
2022-10-13T15:20:35.968Z,21.43
2022-10-13T15:23:04.553Z,21.77
2022-10-13T15:25:33.089Z,21.47
2022-10-13T15:28:03.074Z,23.00
2022-10-13T15:30:34.616Z,23.00
2022-10-13T15:33:03.190Z,21.70
2022-10-13T15:35:32.586Z,22.10
2022-10-13T15:38:01.222Z,23.43
2022-10-13T15:40:33.511Z,22.30
2022-10-13T15:43:03.453Z,23.50
2022-10-13T15:45:32.088Z,22.37
2022-10-13T15:48:00.654Z,23.17
2022-10-13T15:50:29.322Z,23.03
2022-10-13T15:52:57.961Z,20.83
2022-10-13T15:55:26.932Z,20.90
2022-10-13T15:57:55.682Z,22.30
2022-10-13T16:00:25.885Z,23.37
2022-10-13T16:02:54.499Z,21.83
2022-10-13T16:05:23.074Z,24.57
2022-10-13T16:07:51.653Z,22.33
2022-10-13T16:10:20.454Z,22.47
2022-10-13T16:12:50.030Z,21.83
2022-10-13T16:15:19.151Z,21.90
2022-10-13T16:17:49.168Z,21.67
2022-10-13T16:20:18.091Z,22.97
2022-10-13T16:22:47.360Z,21.63
2022-10-13T16:25:16.085Z,24.03
2022-10-13T16:27:44.863Z,22.77
2022-10-13T16:30:14.177Z,23.13
2022-10-13T16:32:43.357Z,23.10
2022-10-13T16:35:13.878Z,22.97
2022-10-13T16:37:42.546Z,23.17
2022-10-13T16:40:12.377Z,24.93
2022-10-13T16:42:42.399Z,22.33
2022-10-13T16:45:11.727Z,26.03
2022-10-13T16:47:40.891Z,24.30
2022-10-13T16:50:10.872Z,23.77
2022-10-13T16:52:41.083Z,23.27
2022-10-13T16:55:10.867Z,21.23
2022-10-13T16:57:39.497Z,24.30
2022-10-13T17:00:09.640Z,25.30
2022-10-13T17:02:38.665Z,22.03
2022-10-13T17:05:07.636Z,21.87
2022-10-13T17:07:36.211Z,22.40
2022-10-13T17:10:06.948Z,23.60
2022-10-13T17:12:36.642Z,24.30
2022-10-13T17:15:05.866Z,23.63
2022-10-13T17:17:34.997Z,23.53
2022-10-13T17:20:04.648Z,22.80
2022-10-13T17:22:34.534Z,24.60
2022-10-13T17:25:03.031Z,23.10
2022-10-13T17:27:35.763Z,24.00
2022-10-13T17:30:05.226Z,22.97
2022-10-13T17:32:38.546Z,22.80
2022-10-13T17:35:11.301Z,25.47
2022-10-13T17:37:40.256Z,25.90
2022-10-13T17:40:10.017Z,24.47
2022-10-13T17:42:40.088Z,23.43
2022-10-13T17:45:10.187Z,25.43
2022-10-13T17:47:38.792Z,25.03
2022-10-13T17:50:08.510Z,26.17
2022-10-13T17:52:37.743Z,25.27
2022-10-13T17:55:07.337Z,22.53
2022-10-13T17:57:35.917Z,24.43
2022-10-13T18:00:08.156Z,25.13
2022-10-13T18:02:36.925Z,26.00
2022-10-13T18:05:12.050Z,26.33
2022-10-13T18:07:42.913Z,26.37
2022-10-13T18:10:13.060Z,25.83
2022-10-13T18:12:42.396Z,24.23
2022-10-13T18:15:12.877Z,27.93
2022-10-13T18:17:41.961Z,24.90
2022-10-13T18:20:12.085Z,25.87
2022-10-13T18:22:41.007Z,25.63
2022-10-13T18:25:10.084Z,27.80
2022-10-13T18:27:38.663Z,26.23
2022-10-13T18:30:09.974Z,26.30
2022-10-13T18:32:40.239Z,25.13
2022-10-13T18:35:10.019Z,28.10
2022-10-13T18:37:40.007Z,29.17
2022-10-13T18:40:10.769Z,28.17
2022-10-13T18:42:43.357Z,27.17
2022-10-13T18:45:14.591Z,26.00
2022-10-13T18:47:44.674Z,25.60
2022-10-13T18:50:13.354Z,26.27
2022-10-13T18:52:42.220Z,29.43
2022-10-13T18:55:11.466Z,28.10
2022-10-13T18:57:40.172Z,29.53
2022-10-13T19:00:11.006Z,32.10
2022-10-13T19:02:39.802Z,33.00
2022-10-13T19:05:11.277Z,26.63
2022-10-13T19:07:39.978Z,27.17
2022-10-13T19:10:09.836Z,27.47
2022-10-13T19:12:38.568Z,38.20
2022-10-13T19:15:08.445Z,37.67
2022-10-13T19:17:37.320Z,28.73
2022-10-13T19:20:07.092Z,30.40
2022-10-13T19:22:37.245Z,29.67
2022-10-13T19:25:06.786Z,27.67
2022-10-13T19:27:35.814Z,29.83
2022-10-13T19:30:04.992Z,28.00
2022-10-13T19:32:33.605Z,29.20
2022-10-13T19:35:02.358Z,29.07
2022-10-13T19:37:32.272Z,28.10
2022-10-13T19:40:02.529Z,29.60
2022-10-13T19:42:31.257Z,27.57
2022-10-13T19:45:02.144Z,26.47
2022-10-13T19:47:30.962Z,28.80
2022-10-13T19:49:59.878Z,28.20
2022-10-13T19:52:28.682Z,28.07
2022-10-13T19:54:57.391Z,28.60
2022-10-13T19:57:27.506Z,29.87
2022-10-13T19:59:56.132Z,26.80
2022-10-13T20:02:24.955Z,27.53
2022-10-13T20:04:53.770Z,29.20
2022-10-13T20:07:22.698Z,28.70
2022-10-13T20:09:51.723Z,28.57
2022-10-13T20:12:20.617Z,27.43
2022-10-13T20:14:50.708Z,28.27
2022-10-13T20:17:19.668Z,27.13
2022-10-13T20:19:48.581Z,28.43
2022-10-13T20:22:17.375Z,32.30
2022-10-13T20:24:46.261Z,27.60
2022-10-13T20:27:15.045Z,28.47
2022-10-13T20:29:43.631Z,28.03
2022-10-13T20:32:15.239Z,28.33
2022-10-13T20:34:43.841Z,28.87
2022-10-13T20:37:12.662Z,26.10
2022-10-13T20:39:41.853Z,26.43
2022-10-13T20:42:11.036Z,25.40
2022-10-13T20:44:39.905Z,24.30
2022-10-13T20:47:08.609Z,24.57
2022-10-13T20:49:38.640Z,24.53
2022-10-13T20:52:07.438Z,22.77
2022-10-13T20:54:36.202Z,22.23
2022-10-13T20:57:04.948Z,20.40
2022-10-13T20:59:33.593Z,22.43
2022-10-13T21:02:02.241Z,21.63
2022-10-13T21:04:31.382Z,22.13
2022-10-13T21:07:01.507Z,21.10
2022-10-13T21:09:30.299Z,20.23
2022-10-13T21:11:58.968Z,19.50
2022-10-13T21:14:27.835Z,19.60
2022-10-13T21:16:56.529Z,19.27
2022-10-13T21:19:26.078Z,19.33
2022-10-13T21:21:54.598Z,18.63
2022-10-13T21:24:24.722Z,21.30
2022-10-13T21:26:53.350Z,20.57
2022-10-13T21:29:22.269Z,21.50
2022-10-13T21:31:51.071Z,21.70
2022-10-13T21:34:19.651Z,19.37
2022-10-13T21:36:48.422Z,20.07
2022-10-13T21:39:17.465Z,20.33
2022-10-13T21:41:47.437Z,19.30
2022-10-13T21:44:16.086Z,20.57
2022-10-13T21:46:44.649Z,17.43
2022-10-13T21:49:13.297Z,17.77
2022-10-13T21:51:42.326Z,16.27
2022-10-13T21:54:12.561Z,19.37
2022-10-13T21:56:42.455Z,17.67
2022-10-13T21:59:14.491Z,18.87
2022-10-13T22:01:44.081Z,19.70
2022-10-13T22:04:14.642Z,21.53
2022-10-13T22:06:43.378Z,18.40
2022-10-13T22:09:12.387Z,19.80
2022-10-13T22:11:42.031Z,19.13
2022-10-13T22:14:12.800Z,19.03
2022-10-13T22:16:43.407Z,18.90
2022-10-13T22:19:12.691Z,19.33
2022-10-13T22:21:43.881Z,17.77
2022-10-13T22:24:14.885Z,20.73
2022-10-13T22:26:44.656Z,19.90
2022-10-13T22:29:17.711Z,21.67
2022-10-13T22:31:46.580Z,19.57
2022-10-13T22:34:15.826Z,19.97
2022-10-13T22:36:45.364Z,19.87
2022-10-13T22:39:15.041Z,19.80
2022-10-13T22:41:44.806Z,19.57
2022-10-13T22:44:14.975Z,19.90
2022-10-13T22:46:43.683Z,18.67
2022-10-13T22:49:13.469Z,20.07
2022-10-13T22:51:42.656Z,20.60
2022-10-13T22:54:12.599Z,20.73
2022-10-13T22:56:43.201Z,23.23
2022-10-13T22:59:14.558Z,21.47
2022-10-13T23:01:43.248Z,19.33
2022-10-13T23:04:12.170Z,21.47
2022-10-13T23:06:41.227Z,19.93
2022-10-13T23:09:13.384Z,22.10
2022-10-13T23:11:42.390Z,19.67
2022-10-13T23:14:11.271Z,21.00
2022-10-13T23:16:41.398Z,21.40
2022-10-13T23:19:10.134Z,21.27
2022-10-13T23:21:38.887Z,18.60
2022-10-13T23:24:08.847Z,21.17
2022-10-13T23:26:37.476Z,20.73
2022-10-13T23:29:06.209Z,18.83
2022-10-13T23:31:34.955Z,20.73
2022-10-13T23:34:05.005Z,19.00
2022-10-13T23:36:34.407Z,20.13
2022-10-13T23:39:05.960Z,20.13
2022-10-13T23:41:34.955Z,18.67
2022-10-13T23:44:04.927Z,19.47
2022-10-13T23:46:33.525Z,19.17
2022-10-13T23:49:02.394Z,20.63
2022-10-13T23:51:32.402Z,17.80
2022-10-13T23:54:01.059Z,21.27
2022-10-13T23:56:29.719Z,18.73
2022-10-13T23:58:58.416Z,18.87
